Amunt
Inicio > meteoXarxa
Fes-te'n soci

METEOXARXA

Torreblanca
Ubicació
Comarca la Plana Alta
Altitud (msnm)
Posició geogràfica 40° 12' 45.00" N, 00° 12' 5.04" E
Model Instrumentació oficial
Presa de dades
Font de les dades AEMET
Estadístiques. Resum
Data Temperatura (ºC) Humitat (%) Pressió (hPa) Vent (km/h) Precipit. (mm)
Mínima Mitjana Màxima Mínima Mitjana Màxima Mínima Mitjana Màxima Predom. Mitjana Ràfega màxima Total Dies de pluja
Mínima Mitjana Màxima Mínima Mitjana Màxima
Últimes dades diàries
24-02-2017 7,7     11,5     15,3 33,0 6,0  
23-02-2017 10,5     14,4     18,3 27,0 0,0  
22-02-2017 8,3     13,0     17,8 23,0 0,0  
20-02-2017 8,3     13,0     17,7 30,0 0,0  
19-02-2017 9,1     12,7     16,3 34,0 0,0  
18-02-2017 7,4     11,6     15,8 22,0 0,0  
17-02-2017 7,3     11,5     15,6 19,0 0,0  
16-02-2017 9,4     12,8     16,3 21,0 0,0  
15-02-2017 8,9     12,6     16,4 27,0 0,0  
14-02-2017 9,2     12,8     16,5 28,0 0,0  
13-02-2017          
12-02-2017 12,2     14,2     16,3 31,0 0,0  
11-02-2017 8,2     11,2     14,2 37,0 0,4  
10-02-2017 6,4     10,6     14,9 28,0 0,0  
09-02-2017 6,7     11,0     15,3 71,0 0,0  
08-02-2017 9,9     12,2     14,5 91,0 0,0  
07-02-2017 11,8     17,1     22,4 52,0 0,0  
06-02-2017 12,0     15,6     19,3 73,0 0,0  
05-02-2017 10,8     14,0     17,2 90,0 0,8  
04-02-2017 12,6     15,9     19,1 36,0 0,0  
03-02-2017 8,6     14,4     20,3 45,0 0,0  
02-02-2017 5,0     9,1     13,2 30,0 2,2  
31-01-2017 7,1     10,5     14,0 19,0 0,0  
30-01-2017 9,2     12,7     16,2 22,0 0,0  
29-01-2017 5,0     9,9     14,9 22,0 0,0  
28-01-2017 5,5     10,7     15,8 49,0 4,4  
27-01-2017 7,8     11,5     15,1 36,0 23,6  
26-01-2017 4,5     8,5     12,5 28,0 0,0  
25-01-2017 5,5     9,6     13,6 28,0 0,0  
24-01-2017 6,2     11,0     15,9 39,0 0,0  
23-01-2017 8,3     10,8     13,4 47,0 0,0  
22-01-2017 9,0     10,2     11,4 53,0 0,8  
Dades del mes en curs (actualitzades fins l'últim dia disponible)
02/2017 5,0 9,1 12,6 12,9 13,2 16,8 22,4   91,0 9,4  
Últimes dades mensuals
01/2017 1,6 6,4 9,2 10,3 9,0 14,1 18,3 91,0 135,4 6
12/2016 5,4 9,4 15,0 12,8 11,2 16,2 19,0 55,0 76,4 7
11/2016 7,2 11,2 15,6 15,1 14,3 19,0 25,9 67,0 110,4 9
10/2016 13,6 16,6 19,7 20,0 18,7 23,5 27,0 74,0 47,6 9
09/2016 15,2 19,1 23,0 23,4 25,1 27,7 32,0 63,0 40,6 4
08/2016 17,9 21,3 23,3 25,2 25,4 29,2 32,8 47,0 7,0 5
07/2016 18,0 21,3 23,3 25,3 25,9 29,3 32,4 46,0 0,0 0
06/2016 14,3 18,2 21,7 22,4 23,3 26,5 30,1 53,0 2,8 3
05/2016 8,6 13,9 17,3 17,8 16,6 21,7 27,3 73,0 27,6 8
04/2016 7,6 11,3 13,8 15,5 14,7 19,6 25,8 67,0 35,6 10
03/2016 4,9 8,8 13,2 13,1 11,2 17,3 24,5 67,0 70,0 6
02/2016 5,1 8,8 14,0 13,4 12,6 18,1 25,9 78,0 10,8 7
01/2016 6,0 9,6 12,0 13,5 15,1 17,4 23,6 60,0 0,6 1
Dades de l'any en curs (actualitzades fins l'últim dia disponible)
2017 1,6 7,5 12,6 11,3 9,0 15,2 22,4   91,0 144,8  
Últimes dades anuals
2013 3,0 13,3 17,6 17,5 21,0 21,8 31,4 106,0 294,8 54